Rangeley, Maine
Current Conditions -  °F | °C
As of 11:52 PM on Friday 31 Oct 2014 (Local Time) from KBML Reporting Station
Overcast Overcast  
Wind Chill:   Ceiling: 4700
Heat Index:   Visibility: 10mi
Dew Point: -1°   Wind: 5mph
Humidity: 70%   Direction: 340°NNW
Pressure: 30.03"   Gusts: NA
Location:  44.97°N, 70.65°W
Report Text: KBML 010352Z AUTO 34004KT 10SM OVC047 04/M01 A3003 RMK AO2 SLP178 T00391011
Loading
Personal Weather Stations






























Interactive Weather Map
Tropical Storm Tracking
New forecast layout! Learn more

10-Day Weather Forecast

Advertisements
Track Severe Weather on mobile